Main page
METAR-TAF:

METAR-TAF

Airports :

Maharana Pratap Airport

Udaipur, India

latitude: 24-37-04N, longitude: 73-53-46E, elevation: 513 m

Current weather observation

The report was made 32 minutes ago, at 03:00 UTC
Calm wind
Temperature 37°C
Humidity 20%
Pressure 1006 hPa
Visibility: 6000 m

METAR: VAUD 270300Z 00000KT 6000 NSC 37/10 Q1006 NOSIG

Time: 09:02 (03:32 UTC)


TAF: missing

Weather observations and forecasts of more than 4000 airports (METAR and TAF reports).

The available stations are represented by yellow and red dots on the map.

Hover mouse over dot to see the name of the station.

Then click to see weather observations and forecasts.

To change the map : click on the green buttons with a black cross to zoom in, on the green button with a dash to zoom out, or on the green arrows for adjacent maps.


METAR-TAF: